createdAt,value
2023-05-19T05:09:38.972Z,2.15
2023-05-19T05:12:41.012Z,2.25
2023-05-19T05:15:42.918Z,2.15
2023-05-19T05:18:46.825Z,2.67
2023-05-19T05:21:48.787Z,2.97
2023-05-19T05:24:50.915Z,2.35
2023-05-19T05:27:52.606Z,2.40
2023-05-19T05:30:56.290Z,1.90
2023-05-19T05:33:58.140Z,1.88
2023-05-19T05:36:59.823Z,1.95
2023-05-19T05:40:01.726Z,2.17
2023-05-19T05:43:03.462Z,2.13
2023-05-19T05:46:05.355Z,1.45
2023-05-19T05:49:07.529Z,2.15
2023-05-19T05:52:10.303Z,1.98
2023-05-19T05:55:12.760Z,1.92
2023-05-19T05:58:15.623Z,2.00
2023-05-19T06:01:17.815Z,2.60
2023-05-19T06:04:20.996Z,1.90
2023-05-19T06:07:22.808Z,2.42
2023-05-19T06:10:24.899Z,4.30
2023-05-19T06:13:26.722Z,2.40
2023-05-19T06:16:28.501Z,2.58
2023-05-19T06:19:30.904Z,3.42
2023-05-19T06:22:32.700Z,2.90
2023-05-19T06:25:34.587Z,3.35
2023-05-19T06:28:36.710Z,2.90
2023-05-19T06:31:38.438Z,3.28
2023-05-19T06:34:40.549Z,2.95
2023-05-19T06:37:42.380Z,3.17
2023-05-19T06:40:44.227Z,2.83
2023-05-19T06:43:45.962Z,2.30
2023-05-19T06:46:47.707Z,2.90
2023-05-19T06:49:51.747Z,1.88
2023-05-19T06:52:53.596Z,2.22
2023-05-19T06:55:59.976Z,3.58
2023-05-19T06:59:03.117Z,3.22
2023-05-19T07:02:05.016Z,3.67
2023-05-19T07:05:08.133Z,3.78
2023-05-19T07:08:09.820Z,4.35
2023-05-19T07:11:12.467Z,3.15
2023-05-19T07:14:14.212Z,4.80
2023-05-19T07:17:15.989Z,4.03
2023-05-19T07:20:18.016Z,4.50
2023-05-19T07:23:19.806Z,4.72
2023-05-19T07:26:22.580Z,4.22
2023-05-19T07:29:24.488Z,5.20
2023-05-19T07:32:26.418Z,5.22
2023-05-19T07:35:28.335Z,3.72
2023-05-19T07:38:31.435Z,4.20
2023-05-19T07:41:34.254Z,4.32
2023-05-19T07:44:36.801Z,5.07
2023-05-19T07:47:38.576Z,4.03
2023-05-19T07:50:40.809Z,4.10
2023-05-19T07:53:43.866Z,4.40
2023-05-19T07:56:45.648Z,3.25
2023-05-19T07:59:47.509Z,3.58
2023-05-19T08:02:49.257Z,4.50
2023-05-19T08:05:51.023Z,3.58
2023-05-19T08:08:54.200Z,2.45
2023-05-19T08:14:58.942Z,3.95
2023-05-19T08:18:03.372Z,2.70
2023-05-19T08:21:05.454Z,4.35
2023-05-19T08:24:07.332Z,3.92
2023-05-19T08:27:09.176Z,4.28
2023-05-19T08:30:11.816Z,2.72
2023-05-19T08:33:13.569Z,3.03
2023-05-19T08:36:15.335Z,5.20
2023-05-19T08:39:19.568Z,4.60
2023-05-19T08:42:21.309Z,4.47
2023-05-19T08:45:23.019Z,4.80
2023-05-19T08:48:24.707Z,4.55
2023-05-19T08:51:41.515Z,5.25
2023-05-19T08:54:50.934Z,5.03
2023-05-19T08:57:52.954Z,5.45
2023-05-19T09:00:55.511Z,5.38
2023-05-19T09:03:57.471Z,5.03
2023-05-19T09:07:02.670Z,4.88
2023-05-19T09:10:06.005Z,5.68
2023-05-19T09:13:07.725Z,5.22
2023-05-19T09:16:09.567Z,4.32
2023-05-19T09:19:15.375Z,4.68
2023-05-19T09:22:20.580Z,4.35
2023-05-19T09:25:22.987Z,3.42
2023-05-19T09:28:29.563Z,4.00
2023-05-19T09:31:33.061Z,4.95
2023-05-19T09:34:34.940Z,3.42
2023-05-19T09:37:42.200Z,3.28
2023-05-19T09:40:44.422Z,3.65
2023-05-19T09:43:48.808Z,3.22
2023-05-19T09:46:51.216Z,2.92
2023-05-19T09:49:53.550Z,3.72
2023-05-19T09:52:55.223Z,2.45
2023-05-19T09:55:57.909Z,3.35
2023-05-19T09:58:59.693Z,3.58
2023-05-19T10:02:01.643Z,3.80
2023-05-19T10:05:04.667Z,4.85
2023-05-19T10:08:07.283Z,5.13
2023-05-19T10:11:09.025Z,3.63
2023-05-19T10:14:10.747Z,3.28
2023-05-19T10:17:12.481Z,3.60
2023-05-19T10:20:15.855Z,4.28
2023-05-19T10:23:17.721Z,4.30
2023-05-19T10:26:19.408Z,3.95
2023-05-19T10:29:23.361Z,3.10
2023-05-19T10:32:26.808Z,2.85
2023-05-19T10:35:52.040Z,2.15
2023-05-19T10:38:58.829Z,2.45
2023-05-19T10:42:05.202Z,1.90
2023-05-19T10:45:21.312Z,3.85
2023-05-19T10:48:23.260Z,2.53
2023-05-19T10:51:32.103Z,2.33
2023-05-19T10:54:46.283Z,1.77
2023-05-19T10:57:54.467Z,3.33
2023-05-19T11:01:01.542Z,2.53
2023-05-19T11:04:09.077Z,3.17
2023-05-19T11:07:10.877Z,3.95
2023-05-19T11:10:12.989Z,2.83
2023-05-19T11:13:22.558Z,2.38
2023-05-19T11:16:29.336Z,2.75
2023-05-19T11:19:33.177Z,3.03
2023-05-19T11:22:36.294Z,2.33
2023-05-19T11:28:43.303Z,2.38
2023-05-19T11:31:45.094Z,4.07
2023-05-19T11:34:48.249Z,3.17
2023-05-19T11:40:54.486Z,3.10
2023-05-19T11:43:56.298Z,2.97
2023-05-19T11:46:59.279Z,2.60
2023-05-19T11:50:01.344Z,3.55
2023-05-19T11:53:03.512Z,3.03
2023-05-19T11:56:05.648Z,2.50
2023-05-19T11:59:07.978Z,3.40
2023-05-19T12:02:22.953Z,4.18
2023-05-19T12:05:25.913Z,2.10
2023-05-19T12:11:29.475Z,2.88
2023-05-19T12:14:31.394Z,2.28
2023-05-19T12:17:33.370Z,2.97
2023-05-19T12:20:38.385Z,2.10
2023-05-19T12:23:41.528Z,3.28
2023-05-19T12:26:43.285Z,2.38
2023-05-19T12:29:54.918Z,2.83
2023-05-19T12:33:00.006Z,2.28
2023-05-19T12:36:01.802Z,2.83
2023-05-19T12:39:04.993Z,3.22
2023-05-19T12:42:10.585Z,2.80
2023-05-19T12:45:12.460Z,3.90
2023-05-19T12:48:17.073Z,3.00
2023-05-19T12:51:19.586Z,2.92
2023-05-19T12:54:22.073Z,3.65
2023-05-19T12:57:24.747Z,3.13
2023-05-19T13:00:32.605Z,2.55
2023-05-19T13:03:40.011Z,2.67
2023-05-19T13:06:43.697Z,2.22
2023-05-19T13:09:45.469Z,2.50
2023-05-19T13:12:47.328Z,2.58
2023-05-19T13:15:49.394Z,2.35
2023-05-19T13:18:51.587Z,2.28
2023-05-19T13:21:53.423Z,1.73
2023-05-19T13:24:58.720Z,2.58
2023-05-19T13:28:01.515Z,2.85
2023-05-19T13:31:03.637Z,3.28
2023-05-19T13:34:05.432Z,2.15
2023-05-19T13:37:10.074Z,2.95
2023-05-19T13:40:12.989Z,2.67
2023-05-19T13:43:14.802Z,2.83
2023-05-19T13:46:16.548Z,3.00
2023-05-19T13:49:18.416Z,3.45
2023-05-19T13:52:23.264Z,3.13
2023-05-19T13:55:27.162Z,2.97
2023-05-19T13:58:29.870Z,3.20
2023-05-19T14:01:31.615Z,3.45
2023-05-19T14:04:33.352Z,3.10
2023-05-19T14:07:35.607Z,2.67
2023-05-19T14:10:37.541Z,2.78
2023-05-19T14:16:41.715Z,3.17
2023-05-19T14:19:43.874Z,3.40
2023-05-19T14:22:45.627Z,2.13
2023-05-19T14:25:47.308Z,2.75
2023-05-19T14:28:49.101Z,2.70
2023-05-19T14:31:50.959Z,2.80
2023-05-19T14:34:53.062Z,2.97
2023-05-19T14:37:54.762Z,2.90
2023-05-19T14:40:56.816Z,2.95
2023-05-19T14:43:58.523Z,3.28
2023-05-19T14:47:02.369Z,3.33
2023-05-19T14:50:04.638Z,3.20
2023-05-19T14:53:06.347Z,3.63
2023-05-19T14:56:08.200Z,3.63
2023-05-19T14:59:10.297Z,2.97
2023-05-19T15:02:13.176Z,4.53
2023-05-19T15:05:15.032Z,3.03
2023-05-19T15:08:16.808Z,4.13
2023-05-19T15:11:18.543Z,2.85
2023-05-19T15:14:20.501Z,2.50
2023-05-19T15:17:22.250Z,3.15
2023-05-19T15:20:24.168Z,3.22
2023-05-19T15:23:25.885Z,2.47
2023-05-19T15:26:29.752Z,3.38
2023-05-19T15:29:32.174Z,4.40
2023-05-19T15:32:33.982Z,3.42
2023-05-19T15:35:35.695Z,3.03
2023-05-19T15:38:37.521Z,2.95
2023-05-19T15:41:39.269Z,3.55
2023-05-19T15:44:40.981Z,4.28
2023-05-19T15:47:42.692Z,4.05
2023-05-19T15:50:44.655Z,2.97
2023-05-19T15:53:46.413Z,2.97
2023-05-19T15:56:48.211Z,2.70
2023-05-19T15:59:49.968Z,3.97
2023-05-19T16:02:51.736Z,2.78
2023-05-19T16:05:54.209Z,3.63
2023-05-19T16:08:56.360Z,3.38
2023-05-19T16:11:58.109Z,2.97
2023-05-19T16:14:59.855Z,3.63
2023-05-19T16:18:01.590Z,2.53
2023-05-19T16:21:03.767Z,3.28
2023-05-19T16:24:05.765Z,3.53
2023-05-19T16:27:07.516Z,3.28
2023-05-19T16:30:09.842Z,3.22
2023-05-19T16:33:11.902Z,3.83
2023-05-19T16:36:13.642Z,3.28
2023-05-19T16:39:15.666Z,2.63
2023-05-19T16:42:17.456Z,4.70
2023-05-19T16:45:19.256Z,2.58
2023-05-19T16:48:20.996Z,3.63
2023-05-19T16:51:22.973Z,3.13
2023-05-19T16:54:25.354Z,2.78
2023-05-19T16:57:27.116Z,2.45
2023-05-19T17:00:29.817Z,2.92
2023-05-19T17:03:31.931Z,3.33
2023-05-19T17:06:33.736Z,3.47
2023-05-19T17:09:35.542Z,2.38
2023-05-19T17:12:37.298Z,4.10
2023-05-19T17:15:40.907Z,3.05
2023-05-19T17:18:44.193Z,2.75
2023-05-19T17:21:46.374Z,2.70
2023-05-19T17:24:48.182Z,2.58
2023-05-19T17:27:49.977Z,2.35
2023-05-19T17:30:51.881Z,2.45
2023-05-19T17:33:53.547Z,2.50
2023-05-19T17:36:55.372Z,2.63
2023-05-19T17:39:57.441Z,2.22
2023-05-19T17:42:59.239Z,2.70
2023-05-19T17:46:01.317Z,2.08
2023-05-19T17:49:03.338Z,2.70
2023-05-19T17:52:05.419Z,2.72
2023-05-19T17:55:08.005Z,2.35
2023-05-19T17:58:09.966Z,2.08
2023-05-19T18:01:11.766Z,2.22
2023-05-19T18:04:15.911Z,2.33
2023-05-19T18:07:18.033Z,2.30
2023-05-19T18:10:20.523Z,2.20
2023-05-19T18:13:23.584Z,1.73
2023-05-19T18:19:27.909Z,2.38
2023-05-19T18:22:29.705Z,2.35
2023-05-19T18:25:31.404Z,3.00
2023-05-19T18:28:33.314Z,2.47
2023-05-19T18:31:35.163Z,1.92
2023-05-19T18:34:37.012Z,1.95
2023-05-19T18:37:38.856Z,1.45
2023-05-19T18:40:43.483Z,1.73
2023-05-19T18:43:45.284Z,1.40
2023-05-19T18:46:46.989Z,1.00
2023-05-19T18:49:49.296Z,1.23
2023-05-19T18:52:51.042Z,1.42
2023-05-19T18:55:52.727Z,1.25
2023-05-19T18:58:54.722Z,2.03
2023-05-19T19:01:56.483Z,1.27
2023-05-19T19:04:58.507Z,1.92
2023-05-19T19:08:00.377Z,1.85
2023-05-19T19:11:02.376Z,1.40
2023-05-19T19:14:04.214Z,1.73
2023-05-19T19:17:06.149Z,0.75
2023-05-19T19:20:08.908Z,1.55
2023-05-19T19:23:10.882Z,1.35
2023-05-19T19:26:12.633Z,1.60
2023-05-19T19:29:16.653Z,1.42
2023-05-19T19:32:18.399Z,2.20
2023-05-19T19:35:22.938Z,2.03
2023-05-19T19:38:24.719Z,1.90
2023-05-19T19:41:28.052Z,2.42
2023-05-19T19:44:29.741Z,2.30
2023-05-19T19:47:32.701Z,2.28
2023-05-19T19:50:34.750Z,1.75
2023-05-19T19:53:36.673Z,1.85
2023-05-19T19:56:38.525Z,1.48
2023-05-19T19:59:40.504Z,1.75
2023-05-19T20:02:55.799Z,1.73
2023-05-19T20:06:03.950Z,1.58
2023-05-19T20:09:06.153Z,1.58
2023-05-19T20:12:07.986Z,2.15
2023-05-19T20:15:10.112Z,1.80
2023-05-19T20:18:11.906Z,1.92
2023-05-19T20:21:13.816Z,2.15
2023-05-19T20:24:15.603Z,2.22
2023-05-19T20:27:17.372Z,2.38
2023-05-19T20:30:19.141Z,2.15
2023-05-19T20:33:21.188Z,2.78
2023-05-19T20:36:22.923Z,2.05
2023-05-19T20:39:24.736Z,3.25
2023-05-19T20:42:26.416Z,2.78
2023-05-19T20:45:28.236Z,4.20
2023-05-19T20:48:29.985Z,3.17
2023-05-19T20:51:32.696Z,2.35
2023-05-19T20:54:34.398Z,4.10
2023-05-19T20:57:36.088Z,2.15
2023-05-19T21:00:38.093Z,2.17
2023-05-19T21:03:40.127Z,3.20
2023-05-19T21:06:41.904Z,3.40
2023-05-19T21:09:46.450Z,4.00
2023-05-19T21:12:48.201Z,3.25
2023-05-19T21:15:50.011Z,4.70
2023-05-19T21:18:51.793Z,2.90
2023-05-19T21:21:53.664Z,2.33
2023-05-19T21:24:56.233Z,2.08
2023-05-19T21:28:01.094Z,3.30
2023-05-19T21:31:05.309Z,3.97
2023-05-19T21:34:09.781Z,3.63
2023-05-19T21:37:11.492Z,3.28
2023-05-19T21:40:13.575Z,3.22
2023-05-19T21:43:16.000Z,3.28
2023-05-19T21:46:17.732Z,3.08
2023-05-19T21:49:20.151Z,3.30
